Time;durP1;ratioP1;P1;durP2;ratioP2;P2;SDS_P1;SDS_P2;PMS_P1;PMS_P2;Temp;Humidity;BMP_temperature;BMP_pressure;BME280_temperature;BME280_humidity;BME280_pressure;Samples;Min_cycle;Max_cycle;Signal;HPM_P1;HPM_P2
2022/12/07 00:02:17;;;;;;;9.17;8.20;;;6.10;99.90;;;;;;5072491;28;20174;-72
2022/12/07 00:04:43;;;;;;;11.33;8.43;;;5.90;99.90;;;;;;5073141;28;20248;-72
2022/12/07 00:07:09;;;;;;;8.77;7.97;;;5.90;99.90;;;;;;5073111;28;20186;-72
2022/12/07 00:09:34;;;;;;;9.43;7.77;;;6.00;99.90;;;;;;5073085;28;20263;-72
2022/12/07 00:12:00;;;;;;;12.30;7.70;;;6.20;99.90;;;;;;5073430;28;20654;-72
2022/12/07 00:14:25;;;;;;;9.37;8.40;;;6.30;99.90;;;;;;5077190;28;20194;-72
2022/12/07 00:16:51;;;;;;;9.43;8.50;;;6.10;99.90;;;;;;5075708;28;20167;-72
2022/12/07 00:19:17;;;;;;;9.70;7.93;;;6.20;99.90;;;;;;5077387;28;20668;-72
2022/12/07 00:21:43;;;;;;;9.20;8.30;;;6.10;99.90;;;;;;5077239;28;20814;-72
2022/12/07 00:24:09;;;;;;;10.03;9.13;;;6.10;99.90;;;;;;5077059;28;20171;-72
2022/12/07 00:26:37;;;;;;;9.37;8.53;;;6.00;99.90;;;;;;5077170;28;20170;-72
2022/12/07 00:29:15;;;;;;;9.93;9.03;;;6.00;99.90;;;;;;5076632;28;20436;-72
2022/12/07 00:31:41;;;;;;;9.80;8.80;;;5.90;99.90;;;;;;5076429;28;20386;-72
2022/12/07 00:34:12;;;;;;;9.80;8.40;;;5.80;99.90;;;;;;5076857;28;20411;-72
2022/12/07 00:36:37;;;;;;;9.40;8.43;;;5.90;99.90;;;;;;5077337;28;20173;-72
2022/12/07 00:39:03;;;;;;;9.23;8.10;;;6.00;99.90;;;;;;5077087;28;20429;-72
2022/12/07 00:41:29;;;;;;;10.67;9.23;;;6.10;99.90;;;;;;5058639;28;20253;-72
2022/12/07 00:43:55;;;;;;;10.40;9.40;;;5.80;99.90;;;;;;5076530;28;20241;-71
2022/12/07 00:46:21;;;;;;;11.93;10.73;;;5.70;99.90;;;;;;5075936;28;20955;-72
2022/12/07 00:48:48;;;;;;;10.83;9.77;;;5.80;99.90;;;;;;5076555;28;20899;-72
2022/12/07 00:51:15;;;;;;;13.07;11.27;;;5.80;99.90;;;;;;5076372;28;20404;-71
2022/12/07 00:53:41;;;;;;;11.63;10.07;;;5.80;99.90;;;;;;5058501;28;20851;-72
2022/12/07 00:56:09;;;;;;;11.07;9.93;;;5.90;99.90;;;;;;5076273;28;20437;-71
2022/12/07 00:58:35;;;;;;;12.60;10.27;;;6.00;99.90;;;;;;5076012;28;20424;-72
2022/12/07 01:01:02;;;;;;;10.40;9.30;;;5.90;99.90;;;;;;5076014;28;20968;-72
2022/12/07 01:03:28;;;;;;;11.33;10.20;;;5.90;99.90;;;;;;5076050;28;20164;-72
2022/12/07 01:05:55;;;;;;;13.33;11.50;;;6.00;99.90;;;;;;5075903;28;20506;-72
2022/12/07 01:08:22;;;;;;;10.50;9.27;;;6.10;99.90;;;;;;5058514;28;21027;-72
2022/12/07 01:10:47;;;;;;;11.53;10.20;;;6.00;99.90;;;;;;5075985;28;20956;-72
2022/12/07 01:13:13;;;;;;;14.50;11.40;;;5.90;99.90;;;;;;5076160;28;20401;-72
2022/12/07 01:15:40;;;;;;;12.27;10.97;;;5.80;99.90;;;;;;5074858;28;20707;-72
2022/12/07 01:18:06;;;;;;;14.63;12.00;;;5.90;99.90;;;;;;5075941;28;20287;-72
2022/12/07 01:20:31;;;;;;;12.20;10.03;;;6.00;99.90;;;;;;5075857;28;20440;-72
2022/12/07 01:22:57;;;;;;;12.83;10.03;;;6.20;99.90;;;;;;5075836;28;20171;-73
2022/12/07 01:25:22;;;;;;;10.83;9.80;;;6.30;99.90;;;;;;5074569;28;20204;-72
2022/12/07 01:27:48;;;;;;;14.17;12.10;;;6.20;99.90;;;;;;5075270;28;20201;-72
2022/12/07 01:30:13;;;;;;;11.43;10.23;;;6.10;99.90;;;;;;5075912;28;20249;-71
2022/12/07 01:32:39;;;;;;;11.23;9.03;;;6.10;99.90;;;;;;5075548;28;20657;-71
2022/12/07 01:35:05;;;;;;;11.00;9.90;;;6.10;99.90;;;;;;5075577;28;20193;-72
2022/12/07 01:37:38;;;;;;;10.27;9.17;;;6.10;99.90;;;;;;5075365;28;20307;-72
2022/12/07 01:40:06;;;;;;;11.13;9.90;;;6.10;99.90;;;;;;5075716;28;20410;-72
2022/12/07 01:42:33;;;;;;;10.77;9.47;;;6.20;99.90;;;;;;5075965;28;20401;-72
2022/12/07 01:45:17;;;;;;;12.97;10.80;;;6.10;99.90;;;;;;5075835;28;20475;-71
2022/12/07 01:47:47;;;;;;;12.67;10.13;;;6.00;99.90;;;;;;5074919;28;20421;-72
2022/12/07 01:50:13;;;;;;;13.10;10.60;;;6.00;99.90;;;;;;5075776;28;20398;-71
2022/12/07 01:52:41;;;;;;;10.70;9.60;;;6.10;99.90;;;;;;5075791;28;20439;-72
2022/12/07 01:55:10;;;;;;;13.97;10.57;;;6.20;99.90;;;;;;5075768;28;20404;-72
2022/12/07 01:57:43;;;;;;;11.40;9.93;;;6.20;99.90;;;;;;5051228;28;20430;-72
2022/12/07 02:00:11;;;;;;;13.77;10.30;;;6.00;99.90;;;;;;5055902;28;20872;-71
2022/12/07 02:02:51;;;;;;;12.50;10.83;;;6.00;99.90;;;;;;5055027;28;20401;-72
2022/12/07 02:05:18;;;;;;;12.87;10.77;;;6.20;99.90;;;;;;5055585;28;20446;-72
2022/12/07 02:07:46;;;;;;;14.00;10.33;;;6.20;99.90;;;;;;5055805;28;20422;-71
2022/12/07 02:10:21;;;;;;;12.60;11.00;;;6.30;99.90;;;;;;5037557;28;20410;-72
2022/12/07 02:12:51;;;;;;;14.33;11.67;;;6.30;99.90;;;;;;5055387;28;20492;-72
2022/12/07 02:15:20;;;;;;;11.60;10.40;;;6.30;99.90;;;;;;5055185;28;20769;-72
2022/12/07 02:18:13;;;;;;;12.10;9.80;;;6.30;99.90;;;;;;5066017;28;20981;-72
2022/12/07 02:21:17;;;;;;;11.63;9.03;;;6.20;99.90;;;;;;5075665;28;20490;-72
2022/12/07 02:24:16;;;;;;;10.93;9.83;;;5.80;99.90;;;;;;5030296;28;20416;-71
2022/12/07 02:26:48;;;;;;;11.60;10.17;;;5.90;99.90;;;;;;5057104;28;21025;-71
2022/12/07 02:29:34;;;;;;;11.93;9.83;;;6.10;99.90;;;;;;5057178;28;20946;-72
2022/12/07 02:32:21;;;;;;;9.70;8.80;;;6.10;99.90;;;;;;5073909;28;20440;-72
2022/12/07 02:35:27;;;;;;;11.80;9.67;;;6.20;99.90;;;;;;5074427;28;20382;-72
2022/12/07 02:38:07;;;;;;;12.00;9.30;;;6.10;99.90;;;;;;4976696;28;20845;-72
2022/12/07 02:40:41;;;;;;;11.07;8.90;;;6.20;99.90;;;;;;5065210;28;20459;-71
2022/12/07 02:43:30;;;;;;;13.30;11.23;;;6.00;99.90;;;;;;5056350;28;20389;-71
2022/12/07 02:46:10;;;;;;;12.90;10.80;;;6.00;99.90;;;;;;5073722;28;20447;-72
2022/12/07 02:48:38;;;;;;;14.93;10.87;;;6.20;99.90;;;;;;5055997;28;20441;-71
2022/12/07 02:51:04;;;;;;;11.30;9.67;;;5.90;99.90;;;;;;5074836;28;20416;-72
2022/12/07 02:53:33;;;;;;;10.80;9.33;;;6.10;99.90;;;;;;5074822;28;20406;-72
2022/12/07 02:56:23;;;;;;;11.87;10.60;;;6.20;99.90;;;;;;5074550;28;20168;-72
2022/12/07 02:59:07;;;;;;;11.80;9.93;;;6.30;99.90;;;;;;5072725;28;20907;-72
2022/12/07 03:01:56;;;;;;;10.50;9.40;;;6.40;99.90;;;;;;5073703;28;20397;-72
2022/12/07 03:04:31;;;;;;;11.97;10.67;;;6.50;99.90;;;;;;5066412;28;20493;-72
2022/12/07 03:07:05;;;;;;;10.80;9.50;;;6.30;99.90;;;;;;5073804;28;20408;-73
2022/12/07 03:09:37;;;;;;;12.23;10.13;;;6.40;99.90;;;;;;5073751;28;20385;-71
2022/12/07 03:12:21;;;;;;;10.03;8.53;;;6.40;99.90;;;;;;5074006;28;20381;-72
2022/12/07 03:15:00;;;;;;;13.13;10.67;;;6.40;99.90;;;;;;5073615;28;20398;-72
2022/12/07 03:17:30;;;;;;;12.97;9.83;;;6.50;99.90;;;;;;5072206;28;20493;-72
2022/12/07 03:20:00;;;;;;;10.60;9.27;;;6.50;99.90;;;;;;5073108;28;20406;-72
2022/12/07 03:22:29;;;;;;;10.40;8.70;;;6.50;99.90;;;;;;5073532;28;20849;-71
2022/12/07 03:25:00;;;;;;;9.60;8.70;;;6.50;99.90;;;;;;5073282;28;20483;-71
2022/12/07 03:27:46;;;;;;;12.57;9.53;;;6.50;99.90;;;;;;5073484;28;20455;-71
2022/12/07 03:30:21;;;;;;;10.10;9.00;;;6.50;99.90;;;;;;5073506;28;20392;-71
2022/12/07 03:33:13;;;;;;;10.87;9.53;;;6.50;99.90;;;;;;5071608;28;20412;-71
2022/12/07 03:35:51;;;;;;;10.40;8.93;;;6.60;99.90;;;;;;5073370;28;20484;-71
2022/12/07 03:38:25;;;;;;;10.33;9.10;;;6.70;99.90;;;;;;5071969;28;20840;-71
2022/12/07 03:41:00;;;;;;;9.93;8.87;;;6.60;99.90;;;;;;5073295;28;20394;-71
2022/12/07 03:43:29;;;;;;;9.80;8.43;;;6.70;99.90;;;;;;5071926;28;20841;-72
2022/12/07 03:46:19;;;;;;;11.30;9.80;;;6.60;99.90;;;;;;5073330;28;20454;-71
2022/12/07 03:48:59;;;;;;;10.20;9.20;;;6.50;99.90;;;;;;5072355;28;20823;-71
2022/12/07 03:51:36;;;;;;;10.83;9.50;;;6.50;99.90;;;;;;5073507;28;20384;-71
2022/12/07 03:54:25;;;;;;;9.77;8.80;;;6.50;99.90;;;;;;5073428;28;20415;-71
2022/12/07 03:56:52;;;;;;;10.73;8.90;;;6.40;99.90;;;;;;5072739;28;20523;-71
2022/12/07 03:59:18;;;;;;;11.23;8.60;;;6.50;99.90;;;;;;5073075;28;20491;-70
2022/12/07 04:01:51;;;;;;;11.03;8.93;;;6.50;99.90;;;;;;5054900;28;20412;-71
2022/12/07 04:04:17;;;;;;;8.87;7.87;;;6.40;99.90;;;;;;5072711;28;20394;-71
2022/12/07 04:06:42;;;;;;;11.00;9.20;;;6.40;99.90;;;;;;5072941;28;20416;-71
2022/12/07 04:09:08;;;;;;;11.13;9.17;;;6.40;99.90;;;;;;5072798;28;20432;-71
2022/12/07 04:11:33;;;;;;;11.43;8.90;;;6.30;99.90;;;;;;5072874;28;20166;-71
2022/12/07 04:16:52;;;;;;;9.33;8.43;;;6.40;99.90;;;;;;5072123;28;20158;-71
2022/12/07 04:19:20;;;;;;;11.57;8.03;;;6.40;99.90;;;;;;5072508;28;20419;-71
2022/12/07 04:21:46;;;;;;;11.67;9.93;;;6.30;99.90;;;;;;5073412;28;20408;-71
2022/12/07 04:24:13;;;;;;;10.73;9.27;;;5.80;99.90;;;;;;5073316;28;20815;-71
2022/12/07 04:26:39;;;;;;;12.00;9.93;;;5.70;99.90;;;;;;5072650;28;20780;-72
2022/12/07 04:29:04;;;;;;;9.90;8.87;;;5.80;99.90;;;;;;5072621;28;20431;-70
2022/12/07 04:31:30;;;;;;;9.97;8.87;;;5.90;99.90;;;;;;5072471;28;20170;-71
2022/12/07 04:33:55;;;;;;;10.80;8.83;;;6.00;99.90;;;;;;5072483;28;20170;-71
2022/12/07 04:36:21;;;;;;;10.80;8.97;;;5.90;99.90;;;;;;5072961;28;20540;-71
2022/12/07 04:38:47;;;;;;;10.20;8.27;;;6.00;99.90;;;;;;5072638;28;20269;-71
2022/12/07 04:41:13;;;;;;;9.40;8.40;;;5.90;99.90;;;;;;5073113;28;20182;-71
2022/12/07 04:43:38;;;;;;;8.27;7.33;;;5.80;99.90;;;;;;5053870;28;20185;-71
2022/12/07 04:46:04;;;;;;;9.57;7.47;;;5.70;99.90;;;;;;5072576;28;20198;-71
2022/12/07 04:48:30;;;;;;;7.13;6.43;;;5.70;99.90;;;;;;5073161;28;20205;-71
2022/12/07 04:50:56;;;;;;;6.40;5.70;;;5.60;99.90;;;;;;5073392;28;20170;-71
2022/12/07 04:53:22;;;;;;;6.77;5.43;;;5.80;99.90;;;;;;5073209;28;20405;-71
2022/12/07 04:55:48;;;;;;;6.90;5.53;;;5.90;99.90;;;;;;5073613;28;20442;-71
2022/12/07 04:58:14;;;;;;;5.83;4.97;;;5.90;99.90;;;;;;5073430;28;20436;-71
2022/12/07 05:00:39;;;;;;;7.50;5.00;;;5.90;99.90;;;;;;5076742;28;20240;-70
2022/12/07 05:03:05;;;;;;;5.70;4.30;;;5.90;99.90;;;;;;5076197;28;20412;-71
2022/12/07 05:05:31;;;;;;;5.13;4.60;;;5.70;99.90;;;;;;5076718;28;20195;-71
2022/12/07 05:07:57;;;;;;;5.27;4.07;;;5.60;99.90;;;;;;5076499;28;20438;-72
2022/12/07 05:10:22;;;;;;;4.73;3.87;;;5.70;99.90;;;;;;5076785;28;20491;-73
2022/12/07 05:12:48;;;;;;;4.47;4.07;;;5.80;99.90;;;;;;5076892;28;20677;-73
2022/12/07 05:15:15;;;;;;;3.13;2.83;;;5.90;99.90;;;;;;5076546;28;20170;-72
2022/12/07 05:17:40;;;;;;;4.20;3.80;;;6.00;99.90;;;;;;5075098;28;20194;-71
2022/12/07 05:20:07;;;;;;;5.00;4.43;;;6.10;99.90;;;;;;5076487;28;20417;-72
2022/12/07 05:22:32;;;;;;;6.07;4.97;;;5.90;99.90;;;;;;5076413;28;20166;-71
2022/12/07 05:24:58;;;;;;;6.60;5.20;;;5.90;99.90;;;;;;5075707;28;20456;-71
2022/12/07 05:27:23;;;;;;;5.10;4.60;;;5.90;99.90;;;;;;5076104;28;20208;-71
2022/12/07 05:29:52;;;;;;;6.20;5.30;;;5.80;99.90;;;;;;5074929;28;20181;-70
2022/12/07 05:32:18;;;;;;;4.33;3.93;;;5.80;99.90;;;;;;5075165;28;20633;-70
2022/12/07 05:34:43;;;;;;;8.77;7.17;;;5.90;99.90;;;;;;5075508;28;20490;-72
2022/12/07 05:37:09;;;;;;;187.93;113.10;;;5.80;99.90;;;;;;5075715;28;20226;-71
2022/12/07 05:39:35;;;;;;;26.53;21.40;;;5.70;99.90;;;;;;5057589;28;20543;-70
2022/12/07 05:42:12;;;;;;;8.13;7.37;;;5.70;99.90;;;;;;5057501;28;20174;-71
2022/12/07 05:44:39;;;;;;;11.70;10.50;;;5.60;99.90;;;;;;5075583;28;20185;-70
2022/12/07 05:47:04;;;;;;;9.90;8.40;;;5.50;99.90;;;;;;5074516;28;20466;-71
2022/12/07 05:49:30;;;;;;;9.20;6.80;;;5.40;99.90;;;;;;5075448;28;20428;-70
2022/12/07 05:51:55;;;;;;;8.70;7.77;;;5.40;99.90;;;;;;5075693;28;20224;-73
2022/12/07 05:54:21;;;;;;;9.87;8.17;;;5.10;99.90;;;;;;5058139;28;20218;-71
2022/12/07 05:56:47;;;;;;;8.50;7.60;;;5.10;99.90;;;;;;5069092;28;20197;-72
2022/12/07 05:59:26;;;;;;;10.83;8.23;;;5.20;99.90;;;;;;5067294;28;20190;-72
2022/12/07 06:02:04;;;;;;;8.03;6.90;;;5.30;99.90;;;;;;5066779;28;20601;-72
2022/12/07 06:04:32;;;;;;;9.53;7.23;;;5.40;99.90;;;;;;5069731;28;21063;-72
2022/12/07 06:06:58;;;;;;;7.63;6.77;;;5.50;99.90;;;;;;5075832;28;20402;-72
2022/12/07 06:09:26;;;;;;;8.27;7.13;;;5.50;99.90;;;;;;5057930;28;20791;-72
2022/12/07 06:14:36;;;;;;;7.17;5.67;;;5.50;99.90;;;;;;5076124;28;20434;-72
2022/12/07 06:17:02;;;;;;;7.57;6.63;;;5.30;99.90;;;;;;5074189;28;20519;-72
2022/12/07 06:19:27;;;;;;;6.57;5.77;;;5.30;99.90;;;;;;5074919;28;20170;-72
2022/12/07 06:21:53;;;;;;;6.90;5.93;;;5.20;99.90;;;;;;5075271;28;20215;-72
2022/12/07 06:24:19;;;;;;;6.60;5.80;;;5.20;99.90;;;;;;5075026;28;20224;-72
2022/12/07 06:26:45;;;;;;;8.23;6.50;;;5.40;99.90;;;;;;5075128;28;20560;-69
2022/12/07 06:29:11;;;;;;;9.90;8.40;;;5.40;99.90;;;;;;5075118;28;20271;-72
2022/12/07 06:31:38;;;;;;;9.70;7.60;;;5.30;99.90;;;;;;5056728;28;20682;-73
2022/12/07 06:34:10;;;;;;;10.73;7.87;;;5.10;99.90;;;;;;5056422;28;20470;-72
2022/12/07 06:36:36;;;;;;;7.70;6.90;;;5.20;99.90;;;;;;5075212;28;20418;-71
2022/12/07 06:39:03;;;;;;;10.80;9.60;;;5.30;99.90;;;;;;5074744;28;20429;-72
2022/12/07 06:41:29;;;;;;;10.33;8.13;;;5.20;99.90;;;;;;5075041;28;20439;-72
2022/12/07 06:43:55;;;;;;;12.40;9.03;;;5.20;99.90;;;;;;5056476;28;20455;-73
2022/12/07 06:46:20;;;;;;;8.73;7.27;;;5.20;99.90;;;;;;5074588;28;20200;-71
2022/12/07 06:48:46;;;;;;;9.80;8.80;;;5.20;99.90;;;;;;5074271;28;20198;-72
2022/12/07 06:51:11;;;;;;;8.83;7.87;;;5.10;99.90;;;;;;5074859;28;20678;-71
2022/12/07 06:53:37;;;;;;;8.93;7.27;;;5.10;99.90;;;;;;5074903;28;20177;-70
2022/12/07 06:56:04;;;;;;;10.30;7.10;;;5.10;99.90;;;;;;5073823;28;20547;-70
2022/12/07 06:58:30;;;;;;;8.50;6.70;;;5.20;99.90;;;;;;5073721;28;20201;-70
2022/12/07 07:00:55;;;;;;;9.43;7.40;;;5.30;99.90;;;;;;5073817;28;20806;-69
2022/12/07 07:03:21;;;;;;;8.00;6.80;;;5.50;99.90;;;;;;5073595;28;20473;-71
2022/12/07 07:05:47;;;;;;;7.90;6.50;;;5.60;99.90;;;;;;5073598;28;20649;-71
2022/12/07 07:08:13;;;;;;;10.10;8.40;;;5.60;99.90;;;;;;5073629;28;20189;-69
2022/12/07 07:10:39;;;;;;;6.97;6.27;;;5.50;99.90;;;;;;5073880;28;20545;-71
2022/12/07 07:13:05;;;;;;;9.90;6.80;;;5.50;99.90;;;;;;5073953;28;20402;-72
2022/12/07 07:15:31;;;;;;;7.40;5.50;;;5.50;99.90;;;;;;5073936;28;20590;-71
2022/12/07 07:17:57;;;;;;;7.90;7.10;;;5.50;99.90;;;;;;5071139;28;20462;-72
2022/12/07 07:20:22;;;;;;;7.83;6.37;;;5.50;99.90;;;;;;5073903;28;20902;-71
2022/12/07 07:22:48;;;;;;;8.40;6.73;;;5.60;99.90;;;;;;5073281;28;20170;-71
2022/12/07 07:25:15;;;;;;;7.70;6.67;;;5.60;99.90;;;;;;5073746;28;20645;-70
2022/12/07 07:27:41;;;;;;;6.70;6.00;;;5.70;99.90;;;;;;5073208;28;20213;-74
2022/12/07 07:30:08;;;;;;;6.50;5.70;;;5.80;99.90;;;;;;5073875;28;20433;-72
2022/12/07 07:32:33;;;;;;;6.13;5.53;;;5.80;99.90;;;;;;5073331;28;20406;-70
2022/12/07 07:34:59;;;;;;;7.63;6.00;;;5.90;99.90;;;;;;5073476;28;20459;-72
2022/12/07 07:37:25;;;;;;;6.10;5.50;;;5.90;99.90;;;;;;5073624;28;20259;-71
2022/12/07 07:39:50;;;;;;;9.60;5.87;;;5.90;99.90;;;;;;5073787;28;20192;-71
2022/12/07 07:42:16;;;;;;;6.20;5.60;;;5.90;99.90;;;;;;5073340;28;20401;-71
2022/12/07 07:44:41;;;;;;;8.77;6.37;;;5.80;99.90;;;;;;5071840;28;20198;-71
2022/12/07 07:47:07;;;;;;;5.67;4.97;;;5.70;99.90;;;;;;5071561;28;20178;-70
2022/12/07 07:49:33;;;;;;;5.60;4.90;;;5.80;99.90;;;;;;5071181;28;20173;-70
2022/12/07 07:51:58;;;;;;;6.07;5.47;;;5.90;99.90;;;;;;5073673;28;20177;-71
2022/12/07 07:54:24;;;;;;;6.90;6.00;;;5.80;99.90;;;;;;5055340;28;20542;-72
2022/12/07 07:56:49;;;;;;;7.47;6.77;;;5.80;99.90;;;;;;5073238;28;20169;-71
2022/12/07 07:59:15;;;;;;;11.93;10.07;;;5.90;99.90;;;;;;5073404;28;20174;-69
2022/12/07 08:01:41;;;;;;;6.17;5.57;;;6.10;99.90;;;;;;5073313;28;20244;-74
2022/12/07 08:04:07;;;;;;;7.77;5.33;;;6.00;99.90;;;;;;5073114;28;20439;-70
2022/12/07 08:06:32;;;;;;;6.30;5.40;;;6.00;99.90;;;;;;5073100;28;20676;-71
2022/12/07 08:08:58;;;;;;;6.10;5.10;;;6.20;99.90;;;;;;5055046;28;20197;-73
2022/12/07 08:11:24;;;;;;;7.37;5.97;;;6.20;99.90;;;;;;5073729;28;20170;-70
2022/12/07 08:13:50;;;;;;;6.83;5.80;;;6.20;99.90;;;;;;5055182;28;20212;-71
2022/12/07 08:16:16;;;;;;;6.00;5.40;;;6.30;99.90;;;;;;5073041;28;20440;-74
2022/12/07 08:18:43;;;;;;;7.30;6.40;;;6.40;99.90;;;;;;5071564;28;20202;-70
2022/12/07 08:21:14;;;;;;;6.10;5.00;;;6.30;99.90;;;;;;5073066;28;20405;-73
2022/12/07 08:23:40;;;;;;;7.53;5.90;;;6.20;99.90;;;;;;5073129;28;20412;-73
2022/12/07 08:26:09;;;;;;;9.70;5.87;;;6.30;99.90;;;;;;5072807;28;20533;-69
2022/12/07 08:28:35;;;;;;;7.17;5.50;;;6.40;99.90;;;;;;5072769;28;20943;-70
2022/12/07 08:31:06;;;;;;;6.73;5.60;;;6.60;99.90;;;;;;5073124;28;20797;-71
2022/12/07 08:33:32;;;;;;;7.97;6.47;;;6.70;99.90;;;;;;5073824;28;20398;-70
2022/12/07 08:36:07;;;;;;;8.00;5.77;;;6.80;99.90;;;;;;5076946;28;20414;-71
2022/12/07 08:38:34;;;;;;;9.00;6.30;;;6.80;99.90;;;;;;5076481;28;20430;-70
2022/12/07 08:41:00;;;;;;;7.20;5.40;;;6.80;99.90;;;;;;5076901;28;20408;-71
2022/12/07 08:43:26;;;;;;;7.37;6.37;;;6.60;99.90;;;;;;5058636;28;20824;-72
2022/12/07 08:46:23;;;;;;;6.57;5.60;;;6.70;99.90;;;;;;5058526;28;20211;-70
2022/12/07 08:49:06;;;;;;;6.73;6.03;;;6.80;99.90;;;;;;5070000;28;20625;-68
2022/12/07 08:51:32;;;;;;;7.97;6.37;;;6.60;99.90;;;;;;5077218;28;20397;-71
2022/12/07 08:53:59;;;;;;;7.77;6.17;;;6.50;99.90;;;;;;5076543;28;20411;-71
2022/12/07 08:56:25;;;;;;;8.43;6.47;;;6.30;99.90;;;;;;5077043;28;20492;-72
2022/12/07 08:58:51;;;;;;;8.03;5.80;;;6.50;99.90;;;;;;5076705;28;20530;-72
2022/12/07 09:01:17;;;;;;;9.03;6.93;;;6.50;99.90;;;;;;5077310;28;20174;-72
2022/12/07 09:03:42;;;;;;;6.73;5.53;;;6.50;99.90;;;;;;5076160;28;20466;-71
2022/12/07 09:06:08;;;;;;;6.27;5.67;;;6.70;99.90;;;;;;5076475;28;20216;-71
2022/12/07 09:08:38;;;;;;;6.50;5.20;;;6.80;99.90;;;;;;5058044;28;20559;-72
2022/12/07 09:11:04;;;;;;;7.93;6.57;;;7.00;99.90;;;;;;5076355;28;20169;-72
2022/12/07 09:13:29;;;;;;;10.53;6.37;;;7.10;99.90;;;;;;5076903;28;20460;-71
2022/12/07 09:15:56;;;;;;;7.60;5.83;;;7.00;99.90;;;;;;5075843;28;20173;-72
2022/12/07 09:18:21;;;;;;;7.07;5.80;;;7.10;99.90;;;;;;5074464;28;20199;-69
2022/12/07 09:20:47;;;;;;;6.50;5.40;;;7.20;99.90;;;;;;5075423;28;20416;-73
2022/12/07 09:23:12;;;;;;;7.37;5.87;;;7.10;99.90;;;;;;5075835;28;20256;-71
2022/12/07 09:25:38;;;;;;;6.07;5.23;;;7.10;99.90;;;;;;5076330;28;20588;-70
2022/12/07 09:28:03;;;;;;;7.60;6.23;;;7.10;99.90;;;;;;5075908;28;20205;-70
2022/12/07 09:30:29;;;;;;;6.43;5.43;;;7.10;99.90;;;;;;5076022;28;20235;-70
2022/12/07 09:32:56;;;;;;;6.67;5.73;;;7.20;99.90;;;;;;5075466;28;20262;-69
2022/12/07 09:35:22;;;;;;;6.07;5.30;;;7.20;99.90;;;;;;5075859;28;20176;-71
2022/12/07 09:37:48;;;;;;;5.83;5.00;;;7.10;99.90;;;;;;5074415;28;20487;-70
2022/12/07 09:40:16;;;;;;;5.63;4.77;;;7.20;99.90;;;;;;5075409;28;20414;-71
2022/12/07 09:42:47;;;;;;;6.37;5.30;;;7.40;99.90;;;;;;5075890;28;20192;-70
2022/12/07 09:45:34;;;;;;;7.10;5.33;;;7.10;99.90;;;;;;5075005;28;20574;-70
2022/12/07 09:48:00;;;;;;;6.33;5.33;;;7.00;99.90;;;;;;5057405;28;20875;-70
2022/12/07 09:50:27;;;;;;;6.80;5.67;;;7.10;99.90;;;;;;5057852;28;20410;-72
2022/12/07 09:53:03;;;;;;;7.20;5.17;;;7.20;99.90;;;;;;5075650;28;20217;-71
2022/12/07 09:55:30;;;;;;;7.10;5.60;;;7.30;99.90;;;;;;5075885;28;20439;-71
2022/12/07 09:57:58;;;;;;;9.43;5.30;;;7.20;99.90;;;;;;5075211;28;20801;-71
2022/12/07 10:00:25;;;;;;;5.17;4.67;;;7.20;99.90;;;;;;5075053;28;20415;-69
2022/12/07 10:02:59;;;;;;;6.40;4.80;;;7.20;99.90;;;;;;5075293;28;20413;-70
2022/12/07 10:05:32;;;;;;;6.90;5.10;;;7.50;99.90;;;;;;5075195;28;20442;-69
2022/12/07 10:07:57;;;;;;;5.00;4.50;;;7.60;99.90;;;;;;5075000;28;20426;-70
2022/12/07 10:10:26;;;;;;;4.40;4.00;;;7.40;99.90;;;;;;5075155;28;20411;-71
2022/12/07 10:12:58;;;;;;;5.80;4.53;;;7.40;99.90;;;;;;5074936;28;20572;-70
2022/12/07 10:15:45;;;;;;;4.80;4.30;;;7.30;99.90;;;;;;5076307;28;20391;-70
2022/12/07 10:18:25;;;;;;;9.07;4.57;;;7.00;99.90;;;;;;5045501;28;20541;-74
2022/12/07 10:21:10;;;;;;;4.83;4.30;;;7.20;99.90;;;;;;5055945;28;20415;-71
2022/12/07 10:23:38;;;;;;;5.20;4.60;;;7.60;99.90;;;;;;5055905;28;20750;-70
2022/12/07 10:26:32;;;;;;;4.80;4.30;;;7.60;99.90;;;;;;5056298;28;20458;-71
2022/12/07 10:29:17;;;;;;;5.33;4.10;;;7.70;99.90;;;;;;5054951;28;20534;-69
2022/12/07 10:31:44;;;;;;;6.10;4.67;;;7.60;99.90;;;;;;5054380;28;20497;-70
2022/12/07 10:34:29;;;;;;;4.63;3.80;;;7.60;99.90;;;;;;5055708;28;20471;-74
2022/12/07 10:37:12;;;;;;;8.00;3.73;;;7.50;99.90;;;;;;5055267;28;20404;-72
2022/12/07 10:39:47;;;;;;;4.33;3.73;;;7.50;99.90;;;;;;5054861;28;20908;-71
2022/12/07 10:42:21;;;;;;;4.47;4.07;;;7.60;99.90;;;;;;5055552;28;20430;-75
2022/12/07 10:44:49;;;;;;;4.30;3.90;;;7.70;99.90;;;;;;5055599;28;20481;-73
2022/12/07 10:47:38;;;;;;;3.40;3.03;;;7.60;99.90;;;;;;5055128;28;20570;-72
2022/12/07 10:50:41;;;;;;;3.07;2.80;;;7.80;99.90;;;;;;5055271;28;20436;-71
2022/12/07 10:53:27;;;;;;;3.80;3.40;;;7.80;99.90;;;;;;5054844;28;20403;-72
2022/12/07 10:56:04;;;;;;;4.03;3.63;;;7.90;99.90;;;;;;5054958;28;20431;-73
2022/12/07 10:58:54;;;;;;;3.73;3.37;;;7.80;99.90;;;;;;5054744;28;20508;-72
2022/12/07 11:01:29;;;;;;;4.10;3.70;;;7.70;99.90;;;;;;5054918;28;20395;-72
2022/12/07 11:04:33;;;;;;;4.30;3.90;;;7.70;99.90;;;;;;5053434;28;20422;-71
2022/12/07 11:07:22;;;;;;;4.20;3.47;;;7.40;99.90;;;;;;5054351;28;20386;-70
2022/12/07 11:10:01;;;;;;;6.53;3.80;;;7.30;99.90;;;;;;5054208;28;20385;-72
2022/12/07 11:12:55;;;;;;;4.47;4.07;;;7.40;99.90;;;;;;5054638;28;20377;-73
2022/12/07 11:15:50;;;;;;;7.40;4.20;;;7.70;99.90;;;;;;5054180;28;20371;-72
2022/12/07 11:18:32;;;;;;;8.27;4.10;;;7.60;99.90;;;;;;5064591;28;20441;-71
2022/12/07 11:21:33;;;;;;;5.30;3.90;;;7.60;99.90;;;;;;5074220;28;20386;-71
2022/12/07 11:24:22;;;;;;;6.40;4.23;;;7.80;99.90;;;;;;5060618;28;20423;-72
2022/12/07 11:27:17;;;;;;;3.60;3.23;;;7.90;99.90;;;;;;5073539;28;20972;-72
2022/12/07 11:29:58;;;;;;;4.30;3.87;;;7.90;99.90;;;;;;5073264;28;20532;-69
2022/12/07 11:32:51;;;;;;;4.13;3.40;;;8.00;99.90;;;;;;5073677;28;20403;-70
2022/12/07 11:35:32;;;;;;;4.63;3.57;;;8.00;99.90;;;;;;5072569;28;20944;-71
2022/12/07 11:38:21;;;;;;;4.77;3.50;;;7.90;99.90;;;;;;5073266;28;20418;-69
2022/12/07 11:40:52;;;;;;;4.20;3.60;;;7.90;99.90;;;;;;5074187;28;20901;-71
2022/12/07 11:43:17;;;;;;;4.27;3.67;;;8.00;99.90;;;;;;5073659;28;20413;-71
2022/12/07 11:45:47;;;;;;;4.23;3.40;;;8.10;99.90;;;;;;5073183;28;20453;-71
2022/12/07 11:48:40;;;;;;;3.93;3.53;;;8.20;99.90;;;;;;5073064;28;20203;-72
2022/12/07 11:51:10;;;;;;;3.80;3.40;;;8.10;99.90;;;;;;5073614;28;20791;-71
2022/12/07 11:53:41;;;;;;;3.93;3.53;;;8.00;99.90;;;;;;5055378;28;20407;-69
2022/12/07 11:56:19;;;;;;;4.07;3.30;;;8.00;99.90;;;;;;5055426;28;20392;-69
2022/12/07 11:58:48;;;;;;;3.23;2.93;;;8.10;99.90;;;;;;5073223;28;20453;-71
2022/12/07 12:01:16;;;;;;;4.10;3.50;;;8.00;99.90;;;;;;5073184;28;20413;-71
2022/12/07 12:03:55;;;;;;;6.30;4.07;;;7.60;99.90;;;;;;5073038;28;20435;-73
2022/12/07 12:06:21;;;;;;;3.97;3.27;;;7.60;99.90;;;;;;5074043;28;20444;-71
2022/12/07 12:09:01;;;;;;;5.53;4.20;;;7.20;99.90;;;;;;5072685;28;20419;-71
2022/12/07 12:11:36;;;;;;;6.60;5.00;;;7.00;99.90;;;;;;5073774;28;20400;-72
2022/12/07 12:14:01;;;;;;;4.90;4.50;;;7.00;99.90;;;;;;5073890;28;20760;-71
2022/12/07 12:16:59;;;;;;;6.70;5.33;;;6.80;99.90;;;;;;5073213;28;20407;-71
2022/12/07 12:19:30;;;;;;;6.70;5.00;;;6.90;99.90;;;;;;5072466;28;20175;-70
2022/12/07 12:22:08;;;;;;;6.43;4.70;;;6.70;99.90;;;;;;5073722;28;20391;-70
2022/12/07 12:24:36;;;;;;;8.57;6.50;;;6.60;99.90;;;;;;5072946;28;20381;-71
2022/12/07 12:27:19;;;;;;;5.80;5.00;;;6.60;99.90;;;;;;5072805;28;20425;-71
2022/12/07 12:29:44;;;;;;;6.73;6.13;;;6.60;99.90;;;;;;5073273;28;20429;-70
2022/12/07 12:32:22;;;;;;;7.37;6.67;;;6.70;99.90;;;;;;5072921;28;20436;-70
2022/12/07 12:34:47;;;;;;;8.37;5.97;;;6.70;99.90;;;;;;5072519;28;20171;-70
2022/12/07 12:37:40;;;;;;;7.07;6.37;;;6.60;99.90;;;;;;5072844;28;20418;-70
2022/12/07 12:40:32;;;;;;;7.80;7.00;;;6.60;99.90;;;;;;5069129;28;20269;-70
2022/12/07 12:42:58;;;;;;;8.47;7.30;;;6.70;99.90;;;;;;5054682;28;20406;-70
2022/12/07 12:45:24;;;;;;;7.23;6.53;;;6.80;99.90;;;;;;5072734;28;20806;-70
2022/12/07 12:47:55;;;;;;;6.33;5.73;;;6.70;99.90;;;;;;5054032;28;20552;-70
2022/12/07 12:50:21;;;;;;;6.60;6.00;;;6.70;99.90;;;;;;5072535;28;20402;-70
2022/12/07 12:52:55;;;;;;;7.80;6.40;;;6.80;99.90;;;;;;5072437;28;20447;-70
2022/12/07 12:55:47;;;;;;;7.90;5.53;;;6.90;99.90;;;;;;5072658;28;20427;-70
2022/12/07 12:58:18;;;;;;;6.13;5.00;;;6.90;99.90;;;;;;5051043;28;20798;-69
2022/12/07 13:01:07;;;;;;;8.20;6.87;;;6.90;99.90;;;;;;5071150;28;20459;-70
2022/12/07 13:03:34;;;;;;;6.30;5.70;;;7.00;99.90;;;;;;5071776;28;20422;-69
2022/12/07 13:06:24;;;;;;;6.20;5.33;;;7.10;99.90;;;;;;5072613;28;20510;-70
2022/12/07 13:08:51;;;;;;;5.23;4.70;;;7.00;99.90;;;;;;5071129;28;20424;-69
2022/12/07 13:11:29;;;;;;;6.03;5.20;;;6.90;99.90;;;;;;5072181;28;20756;-70
2022/12/07 13:14:50;;;;;;;8.60;5.50;;;6.80;99.90;;;;;;5072479;28;20382;-69
2022/12/07 13:17:30;;;;;;;6.50;5.53;;;6.90;99.90;;;;;;5009682;28;20498;-69
2022/12/07 13:19:57;;;;;;;6.70;5.73;;;6.80;99.90;;;;;;5030391;28;20406;-69
2022/12/07 13:22:31;;;;;;;9.33;6.30;;;6.70;99.90;;;;;;5063354;28;20394;-69